Time;durP1;ratioP1;P1;durP2;ratioP2;P2;SDS_P1;SDS_P2;PMS_P1;PMS_P2;Temp;Humidity;BMP_temperature;BMP_pressure;BME280_temperature;BME280_humidity;BME280_pressure;Samples;Min_cycle;Max_cycle;Signal;HPM_P1;HPM_P2
2023/08/25 00:01:00;;;;;;;6.67;4.40;;;22.40;80.40;;;;;;5052844;28;20162;-87
2023/08/25 00:03:26;;;;;;;8.23;4.60;;;22.30;81.80;;;;;;5055901;28;20198;-88
2023/08/25 00:05:55;;;;;;;7.70;4.60;;;22.30;82.50;;;;;;5058564;28;20220;-88
2023/08/25 00:08:21;;;;;;;7.53;5.13;;;22.20;84.80;;;;;;5035630;28;20269;-87
2023/08/25 00:10:47;;;;;;;9.30;5.13;;;22.20;86.70;;;;;;5040959;28;20196;-88
2023/08/25 00:13:14;;;;;;;6.93;4.43;;;22.20;84.50;;;;;;5035748;28;20233;-88
2023/08/25 00:15:41;;;;;;;6.87;4.50;;;22.10;90.30;;;;;;5037883;28;20291;-88
2023/08/25 00:18:07;;;;;;;5.83;4.80;;;22.00;91.70;;;;;;5040201;28;20195;-88
2023/08/25 00:20:33;;;;;;;8.40;4.97;;;21.90;92.80;;;;;;5041922;28;20222;-88
2023/08/25 00:22:58;;;;;;;7.03;4.70;;;21.80;94.70;;;;;;5050358;28;20181;-87
2023/08/25 00:25:24;;;;;;;7.27;4.60;;;21.70;95.50;;;;;;5069573;28;20188;-88
2023/08/25 00:27:50;;;;;;;8.40;5.23;;;21.70;96.50;;;;;;5052473;28;20187;-88
2023/08/25 00:30:15;;;;;;;7.30;4.90;;;21.60;98.00;;;;;;5051628;28;20184;-88
2023/08/25 00:32:41;;;;;;;7.80;4.83;;;21.60;98.80;;;;;;5051381;28;20271;-88
2023/08/25 00:35:07;;;;;;;7.93;4.87;;;21.60;99.90;;;;;;5050431;28;20201;-87
2023/08/25 00:37:34;;;;;;;7.50;4.80;;;21.60;99.90;;;;;;5050867;28;20177;-88
2023/08/25 00:40:03;;;;;;;6.57;4.90;;;21.70;99.30;;;;;;5051097;28;20271;-87
2023/08/25 00:42:28;;;;;;;8.07;4.80;;;21.60;98.90;;;;;;5052258;28;20199;-88
2023/08/25 00:44:56;;;;;;;8.97;5.13;;;21.60;99.20;;;;;;5050904;28;20769;-87
2023/08/25 00:47:25;;;;;;;7.20;5.53;;;21.60;99.60;;;;;;5050986;28;20538;-88
2023/08/25 00:49:53;;;;;;;8.40;5.40;;;21.50;99.90;;;;;;5053693;28;20218;-86
2023/08/25 00:52:22;;;;;;;9.27;5.60;;;21.50;99.90;;;;;;5047817;28;20210;-88
2023/08/25 00:54:51;;;;;;;9.20;5.90;;;21.50;99.90;;;;;;5050901;28;20246;-88
2023/08/25 00:57:20;;;;;;;10.60;5.50;;;21.50;99.90;;;;;;5050009;28;20165;-88
2023/08/25 00:59:51;;;;;;;8.20;5.60;;;21.50;99.90;;;;;;5047630;28;20193;-89
2023/08/25 01:02:18;;;;;;;8.83;5.70;;;21.60;99.90;;;;;;5047894;28;20179;-89
2023/08/25 01:04:44;;;;;;;8.87;5.90;;;21.60;99.90;;;;;;5056478;28;20181;-89
2023/08/25 01:07:10;;;;;;;8.53;6.07;;;21.60;99.30;;;;;;5047396;28;20202;-89
2023/08/25 01:09:36;;;;;;;7.90;5.80;;;21.50;99.50;;;;;;5064398;28;20263;-88
2023/08/25 01:12:12;;;;;;;8.60;5.20;;;21.50;99.90;;;;;;5062306;28;20180;-89
2023/08/25 01:15:07;;;;;;;8.37;5.30;;;21.50;99.90;;;;;;5065087;28;20192;-89
2023/08/25 01:17:39;;;;;;;9.57;5.97;;;21.30;99.90;;;;;;5063341;28;20191;-89
2023/08/25 01:20:08;;;;;;;8.80;5.83;;;21.30;99.90;;;;;;5068726;28;20290;-89
2023/08/25 01:23:11;;;;;;;8.47;5.83;;;21.20;99.90;;;;;;5063967;28;20184;-87
2023/08/25 01:25:37;;;;;;;7.17;5.40;;;21.20;99.90;;;;;;5059615;28;20265;-89
2023/08/25 01:28:04;;;;;;;9.50;6.03;;;21.20;99.90;;;;;;5053762;28;20199;-89
2023/08/25 01:30:32;;;;;;;10.80;6.33;;;21.20;99.90;;;;;;5052647;28;20179;-88
2023/08/25 01:32:59;;;;;;;10.43;6.20;;;21.20;99.90;;;;;;5053617;28;20219;-87
2023/08/25 01:35:45;;;;;;;8.43;6.07;;;21.20;99.90;;;;;;5071954;28;20203;-88
2023/08/25 01:38:40;;;;;;;10.63;6.10;;;21.20;99.90;;;;;;5069251;28;20187;-89
2023/08/25 01:41:48;;;;;;;8.30;6.27;;;21.10;99.90;;;;;;5070653;28;20259;-89
2023/08/25 01:44:19;;;;;;;8.80;5.63;;;21.10;99.90;;;;;;5072827;28;20186;-88
2023/08/25 01:46:50;;;;;;;10.33;6.10;;;21.20;99.90;;;;;;5069170;28;20271;-90
2023/08/25 01:49:17;;;;;;;12.33;5.60;;;21.20;99.90;;;;;;5072015;28;20180;-87
2023/08/25 01:51:44;;;;;;;10.47;5.63;;;21.10;99.90;;;;;;5074347;28;20179;-87
2023/08/25 01:54:10;;;;;;;8.47;5.67;;;21.10;99.90;;;;;;5072676;28;20198;-88
2023/08/25 01:56:37;;;;;;;9.73;6.00;;;21.20;99.90;;;;;;5072208;28;20225;-89
2023/08/25 01:59:03;;;;;;;8.67;6.33;;;21.20;99.90;;;;;;5069108;28;20172;-86
2023/08/25 02:01:30;;;;;;;9.23;6.00;;;21.30;99.90;;;;;;5073189;28;20178;-87
2023/08/25 02:03:59;;;;;;;8.37;5.70;;;21.40;99.00;;;;;;5072925;28;20184;-88
2023/08/25 02:06:26;;;;;;;9.97;6.50;;;21.50;97.70;;;;;;5073151;28;20172;-87
2023/08/25 02:08:51;;;;;;;8.80;5.67;;;21.50;97.10;;;;;;5066417;28;20192;-88
2023/08/25 02:11:19;;;;;;;11.17;6.37;;;21.50;95.80;;;;;;5059587;28;20251;-88
2023/08/25 02:13:45;;;;;;;7.50;5.70;;;21.70;95.30;;;;;;5057145;28;20676;-88
2023/08/25 02:16:12;;;;;;;8.97;6.07;;;21.60;92.90;;;;;;5055541;28;20199;-88
2023/08/25 02:18:37;;;;;;;8.73;5.30;;;21.70;92.40;;;;;;5056601;28;20203;-88
2023/08/25 02:21:03;;;;;;;8.60;5.83;;;21.70;91.00;;;;;;5056548;28;20544;-89
2023/08/25 02:23:29;;;;;;;9.80;5.70;;;21.70;90.80;;;;;;5056150;28;20211;-89
2023/08/25 02:25:54;;;;;;;11.53;5.13;;;21.80;89.30;;;;;;5056256;28;20172;-87
2023/08/25 02:28:21;;;;;;;8.23;5.23;;;21.80;86.80;;;;;;5055183;28;20274;-89
2023/08/25 02:30:47;;;;;;;8.90;5.57;;;21.80;85.20;;;;;;5057232;28;20202;-88
2023/08/25 02:33:13;;;;;;;9.50;5.50;;;21.70;84.70;;;;;;5057624;28;20572;-87
2023/08/25 02:35:40;;;;;;;9.60;5.13;;;21.70;84.60;;;;;;5056355;28;20206;-87
2023/08/25 02:38:08;;;;;;;9.97;4.77;;;21.60;85.20;;;;;;5055204;28;20216;-88
2023/08/25 02:40:35;;;;;;;9.03;4.77;;;21.60;86.50;;;;;;5055308;28;20184;-88
2023/08/25 02:43:04;;;;;;;6.37;4.57;;;21.60;88.00;;;;;;5055458;28;20204;-88
2023/08/25 02:45:31;;;;;;;9.37;5.07;;;21.50;87.30;;;;;;5054320;28;20547;-87
2023/08/25 02:47:58;;;;;;;6.87;4.33;;;21.50;89.30;;;;;;5054987;28;20184;-88
2023/08/25 02:50:24;;;;;;;11.50;5.07;;;21.60;88.90;;;;;;5055131;28;20532;-87
2023/08/25 02:52:51;;;;;;;8.57;4.47;;;21.70;87.60;;;;;;5054801;28;20201;-88
2023/08/25 02:55:20;;;;;;;10.77;5.60;;;21.70;84.20;;;;;;5054482;28;20172;-88
2023/08/25 02:57:47;;;;;;;8.00;4.77;;;21.80;81.00;;;;;;5057584;28;20651;-87
2023/08/25 03:00:17;;;;;;;10.67;5.30;;;21.80;79.00;;;;;;5059888;28;20172;-86
2023/08/25 03:02:43;;;;;;;10.17;5.57;;;21.80;76.30;;;;;;5062220;28;20184;-88
2023/08/25 03:05:10;;;;;;;9.47;5.07;;;21.90;72.00;;;;;;5062561;28;20199;-87
2023/08/25 03:07:36;;;;;;;6.40;4.23;;;21.80;74.40;;;;;;5056188;28;20212;-88
2023/08/25 03:10:02;;;;;;;8.93;5.17;;;21.80;75.90;;;;;;5054684;28;20606;-90
2023/08/25 03:12:28;;;;;;;10.13;5.07;;;21.70;76.00;;;;;;5054253;28;20211;-88
2023/08/25 03:14:54;;;;;;;8.83;4.83;;;21.70;77.10;;;;;;5053929;28;20176;-87
2023/08/25 03:17:20;;;;;;;8.63;4.60;;;21.60;81.50;;;;;;5054113;28;20195;-87
2023/08/25 03:19:46;;;;;;;8.10;4.47;;;21.60;81.40;;;;;;5052929;28;20742;-88
2023/08/25 03:22:12;;;;;;;7.63;4.50;;;21.60;83.90;;;;;;5054426;28;20165;-88
2023/08/25 03:24:40;;;;;;;11.63;4.57;;;21.50;87.10;;;;;;5054273;28;20175;-88
2023/08/25 03:27:05;;;;;;;9.50;5.03;;;21.60;87.90;;;;;;5054301;28;20165;-88
2023/08/25 03:29:31;;;;;;;6.33;4.40;;;21.70;83.20;;;;;;5054981;28;20175;-87
2023/08/25 03:31:58;;;;;;;8.97;4.60;;;21.80;80.40;;;;;;5054000;28;20211;-88
2023/08/25 03:34:24;;;;;;;7.50;4.30;;;21.80;79.60;;;;;;5057868;28;20208;-86
2023/08/25 03:36:50;;;;;;;9.33;4.70;;;21.70;78.30;;;;;;5072049;28;20196;-87
2023/08/25 03:39:15;;;;;;;8.90;4.63;;;21.70;79.30;;;;;;5061425;28;20185;-88
2023/08/25 03:41:41;;;;;;;6.90;4.20;;;21.70;80.80;;;;;;5058624;28;20208;-87
2023/08/25 03:44:07;;;;;;;7.30;4.13;;;21.70;81.60;;;;;;5053264;28;20183;-87
2023/08/25 03:46:33;;;;;;;6.77;4.30;;;21.80;78.20;;;;;;5054274;28;20207;-87
2023/08/25 03:49:02;;;;;;;8.50;4.13;;;21.90;71.80;;;;;;5053785;28;20184;-89
2023/08/25 03:51:30;;;;;;;7.67;4.40;;;21.80;71.30;;;;;;5054505;28;20183;-87
2023/08/25 03:53:55;;;;;;;7.20;4.20;;;21.80;74.30;;;;;;5053746;28;20208;-88
2023/08/25 03:56:21;;;;;;;10.33;4.23;;;21.60;78.20;;;;;;5053706;28;20310;-88
2023/08/25 03:58:48;;;;;;;6.57;4.10;;;21.60;79.70;;;;;;5053592;28;20180;-87
2023/08/25 04:01:14;;;;;;;8.53;4.00;;;21.60;81.60;;;;;;5052761;28;20234;-88
2023/08/25 04:03:39;;;;;;;9.27;4.23;;;21.60;83.90;;;;;;5053201;28;20689;-87
2023/08/25 04:06:06;;;;;;;12.90;4.60;;;21.70;82.90;;;;;;5053617;28;20184;-87
2023/08/25 04:08:31;;;;;;;12.03;4.40;;;21.80;78.40;;;;;;5062179;28;20168;-87
2023/08/25 04:10:57;;;;;;;7.73;4.30;;;21.90;74.40;;;;;;5074462;28;20272;-88
2023/08/25 04:13:24;;;;;;;7.37;3.97;;;22.00;70.20;;;;;;5064170;28;20636;-87
2023/08/25 04:15:56;;;;;;;8.83;4.40;;;21.90;70.90;;;;;;5060731;28;20239;-88
2023/08/25 04:18:23;;;;;;;9.97;4.53;;;21.90;74.30;;;;;;5056202;28;20266;-87
2023/08/25 04:20:55;;;;;;;9.43;4.30;;;21.80;74.80;;;;;;5055492;28;20175;-88
2023/08/25 04:23:24;;;;;;;9.07;4.43;;;21.90;73.40;;;;;;5053565;28;20173;-88
2023/08/25 04:25:52;;;;;;;7.63;4.33;;;21.80;75.90;;;;;;5053585;28;20274;-88
2023/08/25 04:28:18;;;;;;;11.17;5.17;;;21.80;77.50;;;;;;5052823;28;20183;-88
2023/08/25 04:30:44;;;;;;;9.13;4.53;;;21.90;72.90;;;;;;5051947;28;20184;-88
2023/08/25 04:33:11;;;;;;;7.27;4.50;;;21.90;73.80;;;;;;5053845;28;20214;-88
2023/08/25 04:35:36;;;;;;;10.73;4.57;;;21.90;72.10;;;;;;5054072;28;20190;-88
2023/08/25 04:38:03;;;;;;;8.60;4.60;;;22.00;69.30;;;;;;5054125;28;20634;-87
2023/08/25 04:40:28;;;;;;;7.73;4.80;;;21.90;66.10;;;;;;5052996;28;20233;-88
2023/08/25 04:42:54;;;;;;;9.00;4.83;;;21.90;67.80;;;;;;5053068;28;20534;-88
2023/08/25 04:45:20;;;;;;;10.70;5.10;;;21.80;69.30;;;;;;5053324;28;20532;-88
2023/08/25 04:47:46;;;;;;;7.47;5.17;;;21.80;72.60;;;;;;5053536;28;20187;-88
2023/08/25 04:50:11;;;;;;;11.23;5.33;;;21.70;76.80;;;;;;5052066;28;20180;-88
2023/08/25 04:52:37;;;;;;;10.23;5.30;;;21.50;87.50;;;;;;5053125;28;20582;-87
2023/08/25 04:55:07;;;;;;;7.03;5.13;;;21.40;91.00;;;;;;5053070;28;20172;-87
2023/08/25 04:57:34;;;;;;;8.07;4.90;;;21.50;92.60;;;;;;5053225;28;20175;-87
2023/08/25 05:00:05;;;;;;;10.17;5.50;;;21.50;92.70;;;;;;5054086;28;20194;-88
2023/08/25 05:02:31;;;;;;;11.53;5.43;;;21.50;92.10;;;;;;5054237;28;20233;-88
2023/08/25 05:04:58;;;;;;;8.80;5.30;;;21.80;85.40;;;;;;5055872;28;20182;-87
2023/08/25 05:07:24;;;;;;;11.83;5.67;;;21.90;81.30;;;;;;5055803;28;20178;-86
2023/08/25 05:09:49;;;;;;;11.67;4.90;;;21.80;81.40;;;;;;5059054;28;20209;-87
2023/08/25 05:12:15;;;;;;;9.87;5.57;;;21.80;85.60;;;;;;5057457;28;20215;-88
2023/08/25 05:14:47;;;;;;;11.10;5.40;;;21.90;80.70;;;;;;5053950;28;20202;-88
2023/08/25 05:17:13;;;;;;;10.97;5.90;;;22.00;76.50;;;;;;5053760;28;20203;-87
2023/08/25 05:19:39;;;;;;;9.37;6.10;;;22.10;71.00;;;;;;5053244;28;20738;-89
2023/08/25 05:22:04;;;;;;;10.07;6.40;;;22.10;66.50;;;;;;5051737;28;20185;-89
2023/08/25 05:24:31;;;;;;;10.07;6.20;;;22.00;66.80;;;;;;5052267;28;20537;-89
2023/08/25 05:26:56;;;;;;;11.10;7.07;;;22.00;70.10;;;;;;5052209;28;20198;-88
2023/08/25 05:29:24;;;;;;;11.30;6.93;;;22.00;72.70;;;;;;5051359;28;20518;-89
2023/08/25 05:31:50;;;;;;;10.47;7.10;;;21.90;74.90;;;;;;5051452;28;20716;-89
2023/08/25 05:34:16;;;;;;;13.47;7.53;;;21.70;82.10;;;;;;5053072;28;20209;-88
2023/08/25 05:36:43;;;;;;;11.23;8.07;;;21.50;92.30;;;;;;5051888;28;20698;-88
2023/08/25 05:39:09;;;;;;;14.63;8.67;;;21.10;99.90;;;;;;5051368;28;20572;-87
2023/08/25 05:41:35;;;;;;;14.80;8.47;;;21.10;99.90;;;;;;5052555;28;20189;-89
2023/08/25 05:44:02;;;;;;;11.73;8.20;;;21.00;99.90;;;;;;5056051;28;20574;-88
2023/08/25 05:46:30;;;;;;;13.07;8.63;;;21.10;99.90;;;;;;5055584;28;20304;-89
2023/08/25 05:48:56;;;;;;;10.77;7.70;;;21.10;99.90;;;;;;5055727;28;20186;-88
2023/08/25 05:51:21;;;;;;;12.93;8.93;;;20.90;99.90;;;;;;5056409;28;20174;-87
2023/08/25 05:53:48;;;;;;;15.70;9.50;;;20.70;99.90;;;;;;5054637;28;20225;-87
2023/08/25 05:56:14;;;;;;;14.70;9.23;;;20.40;99.90;;;;;;5055574;28;20178;-87
2023/08/25 05:58:42;;;;;;;14.13;9.30;;;20.70;99.90;;;;;;5053850;28;20175;-87
2023/08/25 06:01:08;;;;;;;11.53;8.63;;;20.90;99.90;;;;;;5061247;28;20183;-87
2023/08/25 06:03:34;;;;;;;13.20;8.80;;;20.80;99.90;;;;;;5065475;28;20179;-89
2023/08/25 06:06:00;;;;;;;14.27;9.60;;;21.00;99.90;;;;;;5056418;28;20178;-89
2023/08/25 06:08:26;;;;;;;13.40;8.77;;;21.00;99.90;;;;;;5054980;28;20190;-86
2023/08/25 06:10:52;;;;;;;12.27;7.60;;;20.80;99.90;;;;;;5052787;28;20182;-80
2023/08/25 06:13:18;;;;;;;12.27;8.10;;;20.90;99.90;;;;;;5053147;28;20214;-80
2023/08/25 06:15:44;;;;;;;12.13;7.40;;;21.10;99.90;;;;;;5053232;28;20200;-84
2023/08/25 06:18:10;;;;;;;10.70;7.90;;;21.20;99.90;;;;;;5054738;28;20178;-81
2023/08/25 06:20:39;;;;;;;10.83;6.97;;;21.30;99.90;;;;;;5053084;28;20201;-81
2023/08/25 06:23:05;;;;;;;11.80;7.67;;;21.40;99.90;;;;;;5054240;28;20182;-81
2023/08/25 06:25:31;;;;;;;11.93;8.20;;;21.50;99.90;;;;;;5054614;28;20221;-82
2023/08/25 06:27:56;;;;;;;10.93;7.50;;;21.60;99.90;;;;;;5053587;28;20184;-81
2023/08/25 06:30:23;;;;;;;15.33;8.87;;;21.70;99.90;;;;;;5053449;28;20532;-83
2023/08/25 06:32:49;;;;;;;10.50;8.63;;;21.70;99.90;;;;;;5054976;28;20192;-81
2023/08/25 06:35:15;;;;;;;11.07;7.97;;;21.70;99.90;;;;;;5053012;28;20651;-81
2023/08/25 06:37:42;;;;;;;9.83;7.37;;;21.80;99.90;;;;;;5053866;28;20176;-81
2023/08/25 06:40:08;;;;;;;9.87;8.87;;;21.90;99.90;;;;;;5054571;28;20670;-81
2023/08/25 06:42:34;;;;;;;13.33;8.20;;;22.00;99.90;;;;;;5054091;28;20187;-82
2023/08/25 06:45:00;;;;;;;12.20;7.40;;;22.20;99.90;;;;;;5052654;28;20180;-82
2023/08/25 06:47:30;;;;;;;11.33;7.67;;;22.20;99.90;;;;;;5032396;28;20257;-81
2023/08/25 06:49:55;;;;;;;9.47;8.37;;;22.40;99.90;;;;;;5051198;28;20608;-80
2023/08/25 06:52:22;;;;;;;11.63;9.47;;;22.50;99.90;;;;;;5050377;28;20616;-81
2023/08/25 06:54:48;;;;;;;11.50;8.43;;;22.40;99.90;;;;;;5047740;28;20188;-83
2023/08/25 06:57:14;;;;;;;11.83;8.03;;;22.50;99.90;;;;;;5050947;28;20208;-82
2023/08/25 06:59:39;;;;;;;10.07;8.53;;;22.50;99.90;;;;;;5050886;28;20211;-81
2023/08/25 07:02:05;;;;;;;10.50;8.13;;;22.60;99.90;;;;;;5051068;28;20635;-80
2023/08/25 07:04:32;;;;;;;9.87;8.10;;;22.60;99.90;;;;;;5050727;28;20180;-81
2023/08/25 07:06:58;;;;;;;10.40;7.47;;;22.60;99.90;;;;;;5051034;28;20268;-80
2023/08/25 07:09:24;;;;;;;10.33;8.67;;;22.60;99.90;;;;;;5049281;28;20940;-81
2023/08/25 07:11:50;;;;;;;9.40;8.37;;;22.60;99.90;;;;;;5049483;28;20850;-80
2023/08/25 07:14:19;;;;;;;10.77;7.83;;;22.70;99.90;;;;;;5048374;28;20216;-81
2023/08/25 07:16:45;;;;;;;9.87;8.07;;;22.60;99.90;;;;;;5052312;28;20254;-81
2023/08/25 07:19:10;;;;;;;8.93;7.67;;;22.70;99.90;;;;;;5051308;28;20576;-80
2023/08/25 07:21:37;;;;;;;10.00;7.50;;;22.80;99.90;;;;;;5051641;28;20196;-79
2023/08/25 07:24:03;;;;;;;10.97;8.50;;;22.80;99.90;;;;;;5049516;28;20177;-81
2023/08/25 07:26:29;;;;;;;12.40;10.03;;;22.60;99.90;;;;;;5061283;28;20173;-87
2023/08/25 07:28:55;;;;;;;12.27;10.97;;;22.20;99.90;;;;;;5056643;28;20547;-86
2023/08/25 07:31:20;;;;;;;13.50;12.10;;;21.90;99.90;;;;;;5058210;28;20239;-86
2023/08/25 07:33:52;;;;;;;13.73;11.93;;;21.30;99.90;;;;;;5051965;28;20677;-89
2023/08/25 07:36:19;;;;;;;14.33;12.47;;;21.10;99.90;;;;;;5053076;28;20314;-86
2023/08/25 07:38:44;;;;;;;15.53;12.37;;;21.10;99.90;;;;;;5050285;28;20184;-86
2023/08/25 07:41:11;;;;;;;13.80;11.87;;;21.10;99.90;;;;;;5052853;28;20198;-87
2023/08/25 07:43:38;;;;;;;13.60;12.20;;;21.20;99.90;;;;;;5051871;28;20180;-88
2023/08/25 07:46:04;;;;;;;13.40;11.90;;;21.20;99.90;;;;;;5053421;28;20168;-87
2023/08/25 07:48:30;;;;;;;12.87;11.53;;;21.30;99.90;;;;;;5068975;28;20175;-84
2023/08/25 07:50:55;;;;;;;13.23;11.83;;;21.20;99.90;;;;;;5067154;28;20171;-88
2023/08/25 07:53:21;;;;;;;14.13;12.07;;;21.10;99.90;;;;;;5068762;28;20277;-87
2023/08/25 07:55:47;;;;;;;13.70;12.30;;;21.20;99.90;;;;;;5060583;28;20234;-88
2023/08/25 07:58:13;;;;;;;17.43;13.03;;;21.40;99.90;;;;;;5052720;28;20212;-90
2023/08/25 08:00:40;;;;;;;17.90;12.90;;;21.50;99.90;;;;;;5049989;28;20188;-89
2023/08/25 08:03:08;;;;;;;14.20;11.60;;;21.50;99.90;;;;;;5051168;28;20176;-89
2023/08/25 08:05:34;;;;;;;14.33;12.50;;;21.60;99.90;;;;;;5051398;28;20270;-87
2023/08/25 08:08:01;;;;;;;13.67;12.27;;;21.60;99.90;;;;;;5056126;28;20184;-89
2023/08/25 08:10:27;;;;;;;15.33;13.10;;;21.60;99.90;;;;;;5051336;28;20195;-88
2023/08/25 08:12:52;;;;;;;14.03;12.50;;;21.40;99.90;;;;;;5061067;28;20491;-87
2023/08/25 08:15:18;;;;;;;14.37;12.53;;;21.30;99.90;;;;;;5071154;28;20184;-89
2023/08/25 08:17:44;;;;;;;14.37;12.83;;;21.20;99.90;;;;;;5057427;28;20754;-88
2023/08/25 08:20:18;;;;;;;13.40;12.10;;;21.10;99.90;;;;;;5054407;28;20179;-86
2023/08/25 08:22:45;;;;;;;15.57;13.93;;;21.30;99.90;;;;;;5068736;28;20181;-89
2023/08/25 08:25:37;;;;;;;15.90;13.90;;;21.40;99.90;;;;;;5055201;28;20658;-90
2023/08/25 08:28:03;;;;;;;17.90;16.20;;;21.60;99.90;;;;;;5048883;28;20184;-88
2023/08/25 08:30:29;;;;;;;20.37;17.10;;;21.60;99.90;;;;;;5051048;28;20187;-87
2023/08/25 08:32:54;;;;;;;19.67;17.57;;;21.60;99.90;;;;;;5049704;28;20207;-89
2023/08/25 08:35:21;;;;;;;22.07;18.40;;;21.70;99.90;;;;;;5034196;28;20242;-90
2023/08/25 08:37:47;;;;;;;23.07;18.03;;;21.60;99.90;;;;;;5051723;28;20195;-87
2023/08/25 08:40:13;;;;;;;22.47;18.57;;;21.60;99.90;;;;;;5050040;28;20586;-92
2023/08/25 08:42:39;;;;;;;21.67;19.47;;;21.60;99.90;;;;;;5050686;28;20268;-88
2023/08/25 08:45:09;;;;;;;20.17;18.07;;;21.70;99.90;;;;;;5034868;28;20706;-88
2023/08/25 08:47:36;;;;;;;19.43;17.40;;;21.80;99.90;;;;;;5050125;28;20262;-87
2023/08/25 08:50:03;;;;;;;19.80;17.83;;;21.80;99.90;;;;;;5050805;28;20195;-89
2023/08/25 08:52:30;;;;;;;18.40;16.60;;;21.70;99.90;;;;;;5049728;28;20219;-88
2023/08/25 08:54:59;;;;;;;18.47;16.57;;;21.70;99.90;;;;;;5050543;28;20662;-89
2023/08/25 08:57:25;;;;;;;17.40;15.70;;;21.70;99.90;;;;;;5053516;28;20635;-87
2023/08/25 08:59:52;;;;;;;18.77;16.03;;;21.80;99.90;;;;;;5051444;28;20252;-88
2023/08/25 09:02:21;;;;;;;20.53;18.47;;;21.90;99.90;;;;;;5048527;28;20204;-88
2023/08/25 09:04:51;;;;;;;18.17;16.27;;;22.00;99.90;;;;;;5050286;28;20303;-85
2023/08/25 09:07:19;;;;;;;17.33;15.60;;;22.20;99.90;;;;;;5049539;28;20176;-91
2023/08/25 09:09:46;;;;;;;17.10;15.40;;;22.30;99.90;;;;;;5050561;28;20268;-87
2023/08/25 09:12:17;;;;;;;17.17;15.47;;;22.30;99.90;;;;;;5049644;28;20192;-87
2023/08/25 09:14:43;;;;;;;16.97;14.77;;;22.30;99.90;;;;;;5050310;28;20188;-88
2023/08/25 09:17:13;;;;;;;17.17;15.57;;;22.20;99.90;;;;;;5051609;28;20199;-87
2023/08/25 09:19:39;;;;;;;17.23;15.40;;;22.30;99.90;;;;;;5053079;28;20240;-88
2023/08/25 09:22:08;;;;;;;17.70;15.90;;;22.30;99.90;;;;;;5053105;28;20762;-88
2023/08/25 09:24:37;;;;;;;18.83;17.03;;;22.20;99.90;;;;;;5054236;28;20173;-87
2023/08/25 09:27:02;;;;;;;19.10;17.20;;;22.10;99.90;;;;;;5054430;28;20169;-87
2023/08/25 09:29:43;;;;;;;18.43;16.53;;;22.00;99.90;;;;;;5053518;28;20169;-88
2023/08/25 09:32:14;;;;;;;18.17;16.30;;;22.00;99.90;;;;;;5051054;28;20484;-89
2023/08/25 09:34:43;;;;;;;20.03;17.80;;;22.00;99.90;;;;;;5053726;28;20737;-89
2023/08/25 09:37:08;;;;;;;19.97;18.13;;;22.00;99.90;;;;;;5053475;28;20172;-88
2023/08/25 09:39:43;;;;;;;21.03;18.83;;;21.90;99.90;;;;;;5053141;28;20184;-89
2023/08/25 09:42:09;;;;;;;22.20;19.80;;;21.90;99.90;;;;;;5052300;28;20176;-88
2023/08/25 09:44:37;;;;;;;22.10;20.00;;;21.80;99.90;;;;;;5054572;28;20248;-87
2023/08/25 09:47:06;;;;;;;23.60;21.30;;;21.80;99.90;;;;;;5053248;28;20219;-88
2023/08/25 09:49:39;;;;;;;24.40;22.00;;;21.80;99.90;;;;;;5049744;28;20174;-89
2023/08/25 09:52:07;;;;;;;23.30;21.00;;;21.80;99.90;;;;;;5053769;28;20248;-88
2023/08/25 09:54:36;;;;;;;25.33;22.13;;;21.80;99.90;;;;;;5053709;28;20677;-87
2023/08/25 09:57:02;;;;;;;24.90;22.30;;;21.80;99.90;;;;;;5059240;28;20244;-87
2023/08/25 09:59:28;;;;;;;29.30;25.17;;;21.80;99.90;;;;;;5052760;28;20195;-87
2023/08/25 10:01:54;;;;;;;36.27;30.77;;;21.80;99.90;;;;;;5054607;28;20180;-88
2023/08/25 10:04:22;;;;;;;36.57;30.90;;;22.00;99.90;;;;;;5052577;28;20180;-87
2023/08/25 10:06:48;;;;;;;43.87;34.27;;;22.00;99.90;;;;;;5052941;28;20219;-89
2023/08/25 10:09:16;;;;;;;42.67;34.67;;;21.90;99.90;;;;;;5052031;28;20172;-90
2023/08/25 10:11:45;;;;;;;44.40;36.27;;;21.90;99.90;;;;;;5052213;28;20536;-89
2023/08/25 10:14:13;;;;;;;44.00;36.40;;;21.90;99.90;;;;;;5052598;28;20208;-89
2023/08/25 10:16:51;;;;;;;44.70;36.10;;;21.80;99.90;;;;;;5058098;28;20191;-89
2023/08/25 10:19:26;;;;;;;44.53;37.43;;;21.90;99.90;;;;;;5052836;28;20281;-89
2023/08/25 10:21:53;;;;;;;45.73;36.37;;;21.90;99.90;;;;;;5055467;28;20181;-89
2023/08/25 10:24:21;;;;;;;44.93;36.63;;;21.90;99.90;;;;;;5055491;28;20187;-90
2023/08/25 10:26:49;;;;;;;44.57;36.53;;;21.90;99.90;;;;;;5052816;28;20183;-89
2023/08/25 10:29:20;;;;;;;45.30;37.57;;;21.80;99.90;;;;;;5052393;28;20182;-89
2023/08/25 10:31:51;;;;;;;46.73;39.13;;;21.80;99.90;;;;;;5052041;28;20190;-91
2023/08/25 10:34:38;;;;;;;43.17;37.53;;;21.70;99.90;;;;;;5052505;28;20305;-88
2023/08/25 10:37:11;;;;;;;43.97;36.73;;;21.70;99.90;;;;;;5052997;28;20161;-88
2023/08/25 10:39:55;;;;;;;42.97;35.97;;;21.50;99.90;;;;;;5051797;28;20215;-87
2023/08/25 10:42:26;;;;;;;42.03;35.30;;;21.50;99.90;;;;;;5051193;28;21342;-88
2023/08/25 10:44:56;;;;;;;44.13;31.63;;;21.30;99.90;;;;;;5051513;28;20182;-89
2023/08/25 10:47:24;;;;;;;43.60;34.73;;;21.30;99.90;;;;;;5055475;28;20269;-88
2023/08/25 10:49:54;;;;;;;38.90;32.33;;;21.30;99.90;;;;;;5066998;28;20249;-85
2023/08/25 10:52:21;;;;;;;36.37;31.47;;;21.30;99.90;;;;;;5070019;28;20192;-87
2023/08/25 10:54:52;;;;;;;38.83;32.33;;;21.50;99.90;;;;;;5052637;28;20186;-87
2023/08/25 10:57:26;;;;;;;40.07;31.87;;;21.50;99.90;;;;;;5050912;28;20180;-88
2023/08/25 11:00:16;;;;;;;37.93;29.40;;;21.50;99.90;;;;;;5051116;28;20183;-89
2023/08/25 11:02:42;;;;;;;34.60;28.23;;;21.50;99.90;;;;;;5051280;28;20267;-91
2023/08/25 11:05:31;;;;;;;37.57;29.67;;;21.40;99.90;;;;;;5051047;28;20271;-90
2023/08/25 11:08:29;;;;;;;37.83;28.73;;;21.50;99.90;;;;;;5052656;28;20237;-89
2023/08/25 11:11:18;;;;;;;32.87;27.63;;;21.70;99.90;;;;;;5053398;28;20187;-88
2023/08/25 11:13:44;;;;;;;34.63;29.17;;;21.70;99.90;;;;;;5051410;28;20219;-92
2023/08/25 11:16:12;;;;;;;33.90;28.63;;;21.70;99.90;;;;;;5054593;28;20667;-91
2023/08/25 11:18:42;;;;;;;32.67;28.10;;;21.70;99.90;;;;;;5054602;28;20184;-91
2023/08/25 11:21:08;;;;;;;33.07;27.87;;;21.80;99.90;;;;;;5050774;28;20172;-90
2023/08/25 11:23:42;;;;;;;34.83;28.10;;;21.80;99.90;;;;;;5052238;28;20175;-91
2023/08/25 11:26:08;;;;;;;33.43;28.27;;;21.80;99.90;;;;;;5052613;28;20176;-92
2023/08/25 11:28:36;;;;;;;33.93;27.70;;;21.80;99.90;;;;;;5056629;28;20222;-90
2023/08/25 11:31:04;;;;;;;34.87;29.37;;;21.90;99.90;;;;;;5073795;28;20195;-88
2023/08/25 11:33:33;;;;;;;31.80;26.93;;;22.00;99.90;;;;;;5068457;28;20227;-91
2023/08/25 11:36:00;;;;;;;33.70;29.27;;;22.00;99.90;;;;;;5068273;28;20245;-89
2023/08/25 11:38:34;;;;;;;35.80;30.53;;;22.10;99.90;;;;;;5056649;28;20180;-93
2023/08/25 11:41:00;;;;;;;37.27;30.93;;;22.20;99.90;;;;;;5054919;28;20505;-90
2023/08/25 11:43:32;;;;;;;42.23;34.53;;;22.30;99.90;;;;;;5049955;28;20278;-89
2023/08/25 11:45:59;;;;;;;40.57;33.87;;;22.30;99.90;;;;;;5058537;28;20176;-92
2023/08/25 11:48:25;;;;;;;42.63;35.13;;;22.30;99.90;;;;;;5064310;28;20176;-90
2023/08/25 11:50:51;;;;;;;41.40;35.37;;;22.30;99.90;;;;;;5065408;28;20191;-89
2023/08/25 11:53:17;;;;;;;45.93;36.90;;;22.20;99.90;;;;;;5069227;28;20809;-88
2023/08/25 11:56:03;;;;;;;48.77;37.07;;;22.40;99.90;;;;;;5072735;28;20169;-88
2023/08/25 11:58:34;;;;;;;46.77;37.23;;;22.30;99.90;;;;;;5069229;28;20164;-87
2023/08/25 12:01:09;;;;;;;44.97;36.13;;;22.30;99.90;;;;;;5053767;28;20263;-88
2023/08/25 12:03:36;;;;;;;42.67;35.77;;;22.30;99.90;;;;;;5044066;28;20535;-89
2023/08/25 12:06:06;;;;;;;42.73;34.90;;;22.30;99.90;;;;;;5043887;28;20582;-92
2023/08/25 12:08:37;;;;;;;43.50;36.47;;;22.40;99.90;;;;;;5049098;28;20184;-86
2023/08/25 12:11:05;;;;;;;46.00;37.67;;;22.60;98.70;;;;;;5051835;28;20266;-88
2023/08/25 12:13:35;;;;;;;45.53;37.33;;;22.60;97.00;;;;;;5048754;28;20257;-88
2023/08/25 12:16:02;;;;;;;48.07;38.00;;;22.50;98.30;;;;;;5049396;28;20329;-88
2023/08/25 12:18:36;;;;;;;43.03;35.27;;;22.50;96.20;;;;;;5049222;28;20172;-88
2023/08/25 12:21:05;;;;;;;50.27;40.93;;;22.50;94.80;;;;;;5047568;28;20698;-87
2023/08/25 12:23:41;;;;;;;44.87;38.43;;;22.70;95.60;;;;;;5050954;28;20177;-88
2023/08/25 12:26:11;;;;;;;44.67;36.73;;;22.80;97.50;;;;;;5053262;28;20195;-88
2023/08/25 12:28:38;;;;;;;44.43;36.93;;;22.80;99.50;;;;;;5049125;28;20287;-88
2023/08/25 12:31:04;;;;;;;38.20;33.00;;;22.80;93.90;;;;;;5048394;28;20185;-88
2023/08/25 12:33:30;;;;;;;40.27;33.77;;;23.00;85.60;;;;;;5048173;28;20207;-88
2023/08/25 12:35:59;;;;;;;38.20;34.10;;;22.90;88.40;;;;;;5050923;28;20215;-89
2023/08/25 12:38:26;;;;;;;41.63;35.73;;;22.80;87.00;;;;;;5050033;28;20173;-89
2023/08/25 12:40:51;;;;;;;55.47;36.43;;;22.90;92.20;;;;;;5053120;28;20207;-93